CPX248 Details

Departure: Theodore Francis Green State Airport (KPVD)
Arrival: Miami International Airport (KMIA) at N/A
Route: JUMPR RIFLE J174 SWL CEBEE WETRO DIW AR22 JORAY HILEY7
Notes:


Current Weather Information
KPVD 190651Z AUTO 27005KT 10SM CLR 05/03 A2998 RMK AO2 SLP154 T00500028
KMIA 190653Z 12013KT 10SM FEW018 SCT028 SCT070 BKN220 28/23 A2985 RMK AO2 SLP107 T02830233